sensor_id;sensor_type;location;lat;lon;timestamp;temperature;humidity
17728;DHT22;8984;49.268;12.302;2022-12-11T00:00:04;2.20;99.90
17728;DHT22;8984;49.268;12.302;2022-12-11T00:02:32;2.20;99.90
17728;DHT22;8984;49.268;12.302;2022-12-11T00:04:59;2.20;99.90
17728;DHT22;8984;49.268;12.302;2022-12-11T00:07:26;2.20;99.90
17728;DHT22;8984;49.268;12.302;2022-12-11T00:09:53;2.10;99.90
17728;DHT22;8984;49.268;12.302;2022-12-11T00:12:20;2.10;99.90
17728;DHT22;8984;49.268;12.302;2022-12-11T00:14:47;2.20;99.90
17728;DHT22;8984;49.268;12.302;2022-12-11T00:17:13;2.20;99.90
17728;DHT22;8984;49.268;12.302;2022-12-11T00:19:42;2.20;99.90
17728;DHT22;8984;49.268;12.302;2022-12-11T00:22:09;2.10;99.90
17728;DHT22;8984;49.268;12.302;2022-12-11T00:24:36;2.10;99.90
17728;DHT22;8984;49.268;12.302;2022-12-11T00:27:03;2.10;99.90
17728;DHT22;8984;49.268;12.302;2022-12-11T00:29:29;2.10;99.90
17728;DHT22;8984;49.268;12.302;2022-12-11T00:31:56;2.10;99.90
17728;DHT22;8984;49.268;12.302;2022-12-11T00:34:23;2.10;99.90
17728;DHT22;8984;49.268;12.302;2022-12-11T00:36:51;2.10;99.90
17728;DHT22;8984;49.268;12.302;2022-12-11T00:39:18;2.10;99.90
17728;DHT22;8984;49.268;12.302;2022-12-11T00:41:45;2.10;99.90
17728;DHT22;8984;49.268;12.302;2022-12-11T00:44:11;2.10;99.90
17728;DHT22;8984;49.268;12.302;2022-12-11T00:46:38;2.10;99.90
17728;DHT22;8984;49.268;12.302;2022-12-11T00:49:05;2.10;99.90
17728;DHT22;8984;49.268;12.302;2022-12-11T00:51:33;2.10;99.90
17728;DHT22;8984;49.268;12.302;2022-12-11T00:54:02;1.90;99.90
17728;DHT22;8984;49.268;12.302;2022-12-11T00:56:29;1.90;99.90
17728;DHT22;8984;49.268;12.302;2022-12-11T00:58:56;1.90;99.90
17728;DHT22;8984;49.268;12.302;2022-12-11T01:01:23;1.90;99.90
17728;DHT22;8984;49.268;12.302;2022-12-11T01:03:51;1.80;99.90
17728;DHT22;8984;49.268;12.302;2022-12-11T01:06:19;1.80;99.90
17728;DHT22;8984;49.268;12.302;2022-12-11T01:08:46;1.80;99.90
17728;DHT22;8984;49.268;12.302;2022-12-11T01:11:35;1.80;99.90
17728;DHT22;8984;49.268;12.302;2022-12-11T01:14:01;1.60;99.90
17728;DHT22;8984;49.268;12.302;2022-12-11T01:16:28;1.60;99.90
17728;DHT22;8984;49.268;12.302;2022-12-11T01:18:55;1.60;99.90
17728;DHT22;8984;49.268;12.302;2022-12-11T01:21:22;1.70;99.90
17728;DHT22;8984;49.268;12.302;2022-12-11T01:23:49;1.60;99.90
17728;DHT22;8984;49.268;12.302;2022-12-11T01:26:16;1.70;99.90
17728;DHT22;8984;49.268;12.302;2022-12-11T01:28:48;1.70;99.90
17728;DHT22;8984;49.268;12.302;2022-12-11T01:31:16;1.80;99.90
17728;DHT22;8984;49.268;12.302;2022-12-11T01:33:43;1.80;99.90
17728;DHT22;8984;49.268;12.302;2022-12-11T01:36:12;1.80;99.90
17728;DHT22;8984;49.268;12.302;2022-12-11T01:38:40;1.90;99.90
17728;DHT22;8984;49.268;12.302;2022-12-11T01:41:07;1.90;99.90
17728;DHT22;8984;49.268;12.302;2022-12-11T01:46:18;2.00;99.90
17728;DHT22;8984;49.268;12.302;2022-12-11T01:48:45;2.00;99.90
17728;DHT22;8984;49.268;12.302;2022-12-11T01:51:12;2.00;99.90
17728;DHT22;8984;49.268;12.302;2022-12-11T01:53:42;2.00;99.90
17728;DHT22;8984;49.268;12.302;2022-12-11T01:56:09;2.00;99.90
17728;DHT22;8984;49.268;12.302;2022-12-11T01:58:40;2.00;99.90
17728;DHT22;8984;49.268;12.302;2022-12-11T02:01:11;2.10;99.90
17728;DHT22;8984;49.268;12.302;2022-12-11T02:03:42;2.10;99.90
17728;DHT22;8984;49.268;12.302;2022-12-11T02:06:31;2.10;99.90
17728;DHT22;8984;49.268;12.302;2022-12-11T02:08:58;2.20;99.90
17728;DHT22;8984;49.268;12.302;2022-12-11T02:11:33;2.10;99.90
17728;DHT22;8984;49.268;12.302;2022-12-11T02:14:05;2.10;99.90
17728;DHT22;8984;49.268;12.302;2022-12-11T02:16:37;2.20;99.90
17728;DHT22;8984;49.268;12.302;2022-12-11T02:19:17;2.10;99.90
17728;DHT22;8984;49.268;12.302;2022-12-11T02:21:48;2.10;99.90
17728;DHT22;8984;49.268;12.302;2022-12-11T02:24:27;2.10;99.90
17728;DHT22;8984;49.268;12.302;2022-12-11T02:27:10;2.10;99.90
17728;DHT22;8984;49.268;12.302;2022-12-11T02:29:47;2.10;99.90
17728;DHT22;8984;49.268;12.302;2022-12-11T02:32:20;2.00;99.90
17728;DHT22;8984;49.268;12.302;2022-12-11T02:34:54;2.00;99.90
17728;DHT22;8984;49.268;12.302;2022-12-11T02:37:26;1.90;99.90
17728;DHT22;8984;49.268;12.302;2022-12-11T02:39:56;1.90;99.90
17728;DHT22;8984;49.268;12.302;2022-12-11T02:42:26;1.80;99.90
17728;DHT22;8984;49.268;12.302;2022-12-11T02:44:56;1.80;99.90
17728;DHT22;8984;49.268;12.302;2022-12-11T02:47:26;1.80;99.90
17728;DHT22;8984;49.268;12.302;2022-12-11T02:49:58;1.70;99.90
17728;DHT22;8984;49.268;12.302;2022-12-11T02:52:26;1.70;99.90
17728;DHT22;8984;49.268;12.302;2022-12-11T02:54:57;1.60;99.90
17728;DHT22;8984;49.268;12.302;2022-12-11T02:57:27;1.60;99.90
17728;DHT22;8984;49.268;12.302;2022-12-11T02:59:58;1.60;99.90
17728;DHT22;8984;49.268;12.302;2022-12-11T03:02:25;1.50;99.90
17728;DHT22;8984;49.268;12.302;2022-12-11T03:04:53;1.50;99.90
17728;DHT22;8984;49.268;12.302;2022-12-11T03:07:25;1.50;99.90
17728;DHT22;8984;49.268;12.302;2022-12-11T03:09:53;1.50;99.90
17728;DHT22;8984;49.268;12.302;2022-12-11T03:12:22;1.50;99.90
17728;DHT22;8984;49.268;12.302;2022-12-11T03:14:50;1.50;99.90
17728;DHT22;8984;49.268;12.302;2022-12-11T03:17:21;1.50;99.90
17728;DHT22;8984;49.268;12.302;2022-12-11T03:19:52;1.50;99.90
17728;DHT22;8984;49.268;12.302;2022-12-11T03:22:24;1.60;99.90
17728;DHT22;8984;49.268;12.302;2022-12-11T03:24:56;1.50;99.90
17728;DHT22;8984;49.268;12.302;2022-12-11T03:27:27;1.50;99.90
17728;DHT22;8984;49.268;12.302;2022-12-11T03:29:59;1.50;99.90
17728;DHT22;8984;49.268;12.302;2022-12-11T03:32:32;1.40;99.90
17728;DHT22;8984;49.268;12.302;2022-12-11T03:35:04;1.40;99.90
17728;DHT22;8984;49.268;12.302;2022-12-11T03:37:35;1.40;99.90
17728;DHT22;8984;49.268;12.302;2022-12-11T03:40:06;1.40;99.90
17728;DHT22;8984;49.268;12.302;2022-12-11T03:42:35;1.30;99.90
17728;DHT22;8984;49.268;12.302;2022-12-11T03:45:04;1.30;99.90
17728;DHT22;8984;49.268;12.302;2022-12-11T03:47:35;1.20;99.90
17728;DHT22;8984;49.268;12.302;2022-12-11T03:50:04;1.20;99.90
17728;DHT22;8984;49.268;12.302;2022-12-11T03:52:32;1.20;99.90
17728;DHT22;8984;49.268;12.302;2022-12-11T03:55:02;1.10;99.90
17728;DHT22;8984;49.268;12.302;2022-12-11T03:57:32;1.10;99.90
17728;DHT22;8984;49.268;12.302;2022-12-11T04:00:00;1.00;99.90
17728;DHT22;8984;49.268;12.302;2022-12-11T04:02:29;1.00;99.90
17728;DHT22;8984;49.268;12.302;2022-12-11T04:04:58;1.00;99.90
17728;DHT22;8984;49.268;12.302;2022-12-11T04:07:24;0.90;99.90
17728;DHT22;8984;49.268;12.302;2022-12-11T04:09:51;0.90;99.90
17728;DHT22;8984;49.268;12.302;2022-12-11T04:12:18;0.80;99.90
17728;DHT22;8984;49.268;12.302;2022-12-11T04:14:45;0.70;99.90
17728;DHT22;8984;49.268;12.302;2022-12-11T04:17:27;0.70;99.90
17728;DHT22;8984;49.268;12.302;2022-12-11T04:20:13;0.80;99.90
17728;DHT22;8984;49.268;12.302;2022-12-11T04:22:57;0.70;99.90
17728;DHT22;8984;49.268;12.302;2022-12-11T04:25:42;0.60;99.90
17728;DHT22;8984;49.268;12.302;2022-12-11T04:28:08;0.60;99.90
17728;DHT22;8984;49.268;12.302;2022-12-11T04:30:35;0.50;99.90
17728;DHT22;8984;49.268;12.302;2022-12-11T04:33:02;0.50;99.90
17728;DHT22;8984;49.268;12.302;2022-12-11T04:35:30;0.50;99.90
17728;DHT22;8984;49.268;12.302;2022-12-11T04:37:57;0.50;99.90
17728;DHT22;8984;49.268;12.302;2022-12-11T04:40:24;0.50;99.90
17728;DHT22;8984;49.268;12.302;2022-12-11T04:42:52;0.40;99.90
17728;DHT22;8984;49.268;12.302;2022-12-11T04:45:19;0.40;99.90
17728;DHT22;8984;49.268;12.302;2022-12-11T04:47:46;0.40;99.90
17728;DHT22;8984;49.268;12.302;2022-12-11T04:50:14;0.30;99.90
17728;DHT22;8984;49.268;12.302;2022-12-11T04:52:42;0.30;99.90
17728;DHT22;8984;49.268;12.302;2022-12-11T04:55:10;0.30;99.90
17728;DHT22;8984;49.268;12.302;2022-12-11T04:57:37;0.30;99.90
17728;DHT22;8984;49.268;12.302;2022-12-11T05:00:06;0.30;99.90
17728;DHT22;8984;49.268;12.302;2022-12-11T05:02:34;0.30;99.90
17728;DHT22;8984;49.268;12.302;2022-12-11T05:05:02;0.20;99.90
17728;DHT22;8984;49.268;12.302;2022-12-11T05:07:30;0.20;99.90
17728;DHT22;8984;49.268;12.302;2022-12-11T05:09:58;0.30;99.90
17728;DHT22;8984;49.268;12.302;2022-12-11T05:12:25;0.20;99.90
17728;DHT22;8984;49.268;12.302;2022-12-11T05:14:52;0.20;99.90
17728;DHT22;8984;49.268;12.302;2022-12-11T05:17:19;0.20;99.90
17728;DHT22;8984;49.268;12.302;2022-12-11T05:19:47;0.20;99.90
17728;DHT22;8984;49.268;12.302;2022-12-11T05:22:15;0.20;99.90
17728;DHT22;8984;49.268;12.302;2022-12-11T05:24:42;0.20;99.90
17728;DHT22;8984;49.268;12.302;2022-12-11T05:27:10;0.10;99.90
17728;DHT22;8984;49.268;12.302;2022-12-11T05:29:37;0.10;99.90
17728;DHT22;8984;49.268;12.302;2022-12-11T05:32:04;0.10;99.90
17728;DHT22;8984;49.268;12.302;2022-12-11T05:34:31;0.10;99.90
17728;DHT22;8984;49.268;12.302;2022-12-11T05:36:58;0.10;99.90
17728;DHT22;8984;49.268;12.302;2022-12-11T05:39:25;0.10;99.90
17728;DHT22;8984;49.268;12.302;2022-12-11T05:41:52;0.10;99.90
17728;DHT22;8984;49.268;12.302;2022-12-11T05:44:20;0.00;99.90
17728;DHT22;8984;49.268;12.302;2022-12-11T05:46:47;-0.10;99.90
17728;DHT22;8984;49.268;12.302;2022-12-11T05:49:14;-0.10;99.90
17728;DHT22;8984;49.268;12.302;2022-12-11T05:51:41;-0.10;99.90
17728;DHT22;8984;49.268;12.302;2022-12-11T05:54:08;-0.10;99.90
17728;DHT22;8984;49.268;12.302;2022-12-11T05:56:36;-0.10;99.90
17728;DHT22;8984;49.268;12.302;2022-12-11T05:59:04;-0.20;99.90
17728;DHT22;8984;49.268;12.302;2022-12-11T06:01:35;-0.20;99.90
17728;DHT22;8984;49.268;12.302;2022-12-11T06:04:03;-0.20;99.90
17728;DHT22;8984;49.268;12.302;2022-12-11T06:06:30;-0.20;99.90
17728;DHT22;8984;49.268;12.302;2022-12-11T06:08:57;-0.40;99.90
17728;DHT22;8984;49.268;12.302;2022-12-11T06:11:28;-0.40;99.90
17728;DHT22;8984;49.268;12.302;2022-12-11T06:13:56;-0.40;99.90
17728;DHT22;8984;49.268;12.302;2022-12-11T06:16:24;-0.40;99.90
17728;DHT22;8984;49.268;12.302;2022-12-11T06:18:52;-0.40;99.90
17728;DHT22;8984;49.268;12.302;2022-12-11T06:21:21;-0.50;99.90
17728;DHT22;8984;49.268;12.302;2022-12-11T06:23:49;-0.50;99.90
17728;DHT22;8984;49.268;12.302;2022-12-11T06:26:17;-0.50;99.90
17728;DHT22;8984;49.268;12.302;2022-12-11T06:28:44;-0.50;99.90
17728;DHT22;8984;49.268;12.302;2022-12-11T06:31:11;-0.60;99.90
17728;DHT22;8984;49.268;12.302;2022-12-11T06:33:38;-0.70;99.90
17728;DHT22;8984;49.268;12.302;2022-12-11T06:36:09;-0.70;99.90
17728;DHT22;8984;49.268;12.302;2022-12-11T06:38:36;-0.70;99.90
17728;DHT22;8984;49.268;12.302;2022-12-11T06:41:06;-0.70;99.90
17728;DHT22;8984;49.268;12.302;2022-12-11T06:43:35;-0.70;99.90
17728;DHT22;8984;49.268;12.302;2022-12-11T06:46:03;-0.80;99.90
17728;DHT22;8984;49.268;12.302;2022-12-11T06:48:31;-0.80;99.90
17728;DHT22;8984;49.268;12.302;2022-12-11T06:50:58;-0.80;99.90
17728;DHT22;8984;49.268;12.302;2022-12-11T06:53:26;-0.80;99.90
17728;DHT22;8984;49.268;12.302;2022-12-11T06:55:53;-0.90;99.90
17728;DHT22;8984;49.268;12.302;2022-12-11T06:58:19;-0.90;99.90
17728;DHT22;8984;49.268;12.302;2022-12-11T07:00:46;-0.90;99.90
17728;DHT22;8984;49.268;12.302;2022-12-11T07:03:13;-0.80;99.90
17728;DHT22;8984;49.268;12.302;2022-12-11T07:05:40;-0.90;99.90
17728;DHT22;8984;49.268;12.302;2022-12-11T07:08:07;-0.90;99.90
17728;DHT22;8984;49.268;12.302;2022-12-11T07:10:35;-1.00;99.90
17728;DHT22;8984;49.268;12.302;2022-12-11T07:13:02;-0.90;99.90
17728;DHT22;8984;49.268;12.302;2022-12-11T07:15:28;-0.90;99.90
17728;DHT22;8984;49.268;12.302;2022-12-11T07:17:55;-0.90;99.90
17728;DHT22;8984;49.268;12.302;2022-12-11T07:20:22;-0.90;99.90
17728;DHT22;8984;49.268;12.302;2022-12-11T07:22:49;-0.80;99.90
17728;DHT22;8984;49.268;12.302;2022-12-11T07:25:16;-0.70;99.90
17728;DHT22;8984;49.268;12.302;2022-12-11T07:27:45;-0.70;99.90
17728;DHT22;8984;49.268;12.302;2022-12-11T07:30:12;-0.60;99.90
17728;DHT22;8984;49.268;12.302;2022-12-11T07:32:40;-0.60;99.90
17728;DHT22;8984;49.268;12.302;2022-12-11T07:35:07;-0.50;99.90
17728;DHT22;8984;49.268;12.302;2022-12-11T07:37:34;-0.40;99.90
17728;DHT22;8984;49.268;12.302;2022-12-11T07:40:03;-0.40;99.90
17728;DHT22;8984;49.268;12.302;2022-12-11T07:42:30;-0.30;99.90
17728;DHT22;8984;49.268;12.302;2022-12-11T07:44:58;-0.20;99.90
17728;DHT22;8984;49.268;12.302;2022-12-11T07:47:25;-0.20;99.90
17728;DHT22;8984;49.268;12.302;2022-12-11T07:49:52;-0.10;99.90
17728;DHT22;8984;49.268;12.302;2022-12-11T07:52:18;-0.10;99.90
17728;DHT22;8984;49.268;12.302;2022-12-11T07:54:45;0.00;99.90
17728;DHT22;8984;49.268;12.302;2022-12-11T07:57:12;0.10;99.90
17728;DHT22;8984;49.268;12.302;2022-12-11T07:59:39;0.20;99.90
17728;DHT22;8984;49.268;12.302;2022-12-11T08:02:08;0.40;99.90
17728;DHT22;8984;49.268;12.302;2022-12-11T08:04:35;0.40;99.90
17728;DHT22;8984;49.268;12.302;2022-12-11T08:07:02;0.50;99.90
17728;DHT22;8984;49.268;12.302;2022-12-11T08:09:29;0.60;99.90
17728;DHT22;8984;49.268;12.302;2022-12-11T08:11:56;0.60;99.90
17728;DHT22;8984;49.268;12.302;2022-12-11T08:14:23;0.70;99.90
17728;DHT22;8984;49.268;12.302;2022-12-11T08:16:49;0.80;99.90
17728;DHT22;8984;49.268;12.302;2022-12-11T08:19:18;0.90;99.90
17728;DHT22;8984;49.268;12.302;2022-12-11T08:21:44;1.00;99.90
17728;DHT22;8984;49.268;12.302;2022-12-11T08:24:11;1.10;99.90
17728;DHT22;8984;49.268;12.302;2022-12-11T08:26:41;1.10;99.90
17728;DHT22;8984;49.268;12.302;2022-12-11T08:29:08;1.20;99.90
17728;DHT22;8984;49.268;12.302;2022-12-11T08:31:35;1.10;99.90
17728;DHT22;8984;49.268;12.302;2022-12-11T08:34:02;1.20;99.90
17728;DHT22;8984;49.268;12.302;2022-12-11T08:36:30;1.30;99.90
17728;DHT22;8984;49.268;12.302;2022-12-11T08:38:57;1.40;99.90
17728;DHT22;8984;49.268;12.302;2022-12-11T08:41:25;1.30;99.90
17728;DHT22;8984;49.268;12.302;2022-12-11T08:43:52;1.30;99.90
17728;DHT22;8984;49.268;12.302;2022-12-11T08:46:21;1.40;99.90
17728;DHT22;8984;49.268;12.302;2022-12-11T08:48:49;1.40;99.90
17728;DHT22;8984;49.268;12.302;2022-12-11T08:51:18;1.50;99.90
17728;DHT22;8984;49.268;12.302;2022-12-11T08:53:48;1.60;99.90
17728;DHT22;8984;49.268;12.302;2022-12-11T08:56:17;1.40;99.90
17728;DHT22;8984;49.268;12.302;2022-12-11T08:58:45;1.70;99.90
17728;DHT22;8984;49.268;12.302;2022-12-11T09:01:14;1.70;99.90
17728;DHT22;8984;49.268;12.302;2022-12-11T09:03:42;1.70;99.90
17728;DHT22;8984;49.268;12.302;2022-12-11T09:06:11;1.90;99.90
17728;DHT22;8984;49.268;12.302;2022-12-11T09:08:39;2.10;99.90
17728;DHT22;8984;49.268;12.302;2022-12-11T09:11:09;2.30;99.90
17728;DHT22;8984;49.268;12.302;2022-12-11T09:13:36;2.50;99.90
17728;DHT22;8984;49.268;12.302;2022-12-11T09:16:04;2.50;99.90
17728;DHT22;8984;49.268;12.302;2022-12-11T09:18:32;2.60;99.90
17728;DHT22;8984;49.268;12.302;2022-12-11T09:20:59;2.60;99.90
17728;DHT22;8984;49.268;12.302;2022-12-11T09:23:26;2.60;99.90
17728;DHT22;8984;49.268;12.302;2022-12-11T09:25:53;2.80;99.90
17728;DHT22;8984;49.268;12.302;2022-12-11T09:28:22;2.50;99.90
17728;DHT22;8984;49.268;12.302;2022-12-11T09:30:50;2.50;99.90
17728;DHT22;8984;49.268;12.302;2022-12-11T09:33:17;2.50;99.90
17728;DHT22;8984;49.268;12.302;2022-12-11T09:35:44;2.50;99.90
17728;DHT22;8984;49.268;12.302;2022-12-11T09:38:10;2.60;99.90
17728;DHT22;8984;49.268;12.302;2022-12-11T09:40:41;2.60;99.90
17728;DHT22;8984;49.268;12.302;2022-12-11T09:43:16;2.50;99.90
17728;DHT22;8984;49.268;12.302;2022-12-11T09:45:48;2.60;99.90
17728;DHT22;8984;49.268;12.302;2022-12-11T09:48:18;2.60;99.90
17728;DHT22;8984;49.268;12.302;2022-12-11T09:50:47;2.80;99.90
17728;DHT22;8984;49.268;12.302;2022-12-11T09:53:19;2.80;99.90
17728;DHT22;8984;49.268;12.302;2022-12-11T09:55:55;2.90;99.90
17728;DHT22;8984;49.268;12.302;2022-12-11T09:58:34;3.00;99.90
17728;DHT22;8984;49.268;12.302;2022-12-11T10:01:11;2.80;99.90
17728;DHT22;8984;49.268;12.302;2022-12-11T10:04:00;2.80;99.90
17728;DHT22;8984;49.268;12.302;2022-12-11T10:06:33;2.80;99.90
17728;DHT22;8984;49.268;12.302;2022-12-11T10:09:11;2.80;99.90
17728;DHT22;8984;49.268;12.302;2022-12-11T10:12:03;2.90;99.90
17728;DHT22;8984;49.268;12.302;2022-12-11T10:14:46;2.80;99.90
17728;DHT22;8984;49.268;12.302;2022-12-11T10:17:19;2.70;99.90
17728;DHT22;8984;49.268;12.302;2022-12-11T10:19:48;2.70;99.90
17728;DHT22;8984;49.268;12.302;2022-12-11T10:22:17;2.60;99.90
17728;DHT22;8984;49.268;12.302;2022-12-11T10:24:53;2.60;99.90
17728;DHT22;8984;49.268;12.302;2022-12-11T10:27:23;2.60;99.90
17728;DHT22;8984;49.268;12.302;2022-12-11T10:29:58;2.70;99.90
17728;DHT22;8984;49.268;12.302;2022-12-11T10:32:32;2.60;99.90
17728;DHT22;8984;49.268;12.302;2022-12-11T10:35:05;2.40;99.90
17728;DHT22;8984;49.268;12.302;2022-12-11T10:37:32;2.60;99.90
17728;DHT22;8984;49.268;12.302;2022-12-11T10:39:59;2.60;99.90
17728;DHT22;8984;49.268;12.302;2022-12-11T10:42:25;2.70;99.90
17728;DHT22;8984;49.268;12.302;2022-12-11T10:44:57;2.80;99.90
17728;DHT22;8984;49.268;12.302;2022-12-11T10:47:24;2.60;99.90
17728;DHT22;8984;49.268;12.302;2022-12-11T10:49:54;2.60;99.90
17728;DHT22;8984;49.268;12.302;2022-12-11T10:52:24;2.50;99.90
17728;DHT22;8984;49.268;12.302;2022-12-11T10:54:59;2.50;99.90
17728;DHT22;8984;49.268;12.302;2022-12-11T10:57:28;2.70;99.90
17728;DHT22;8984;49.268;12.302;2022-12-11T10:59:57;2.80;99.90
17728;DHT22;8984;49.268;12.302;2022-12-11T11:02:25;2.90;99.90
17728;DHT22;8984;49.268;12.302;2022-12-11T11:04:56;3.00;99.90
17728;DHT22;8984;49.268;12.302;2022-12-11T11:07:27;3.20;99.90
17728;DHT22;8984;49.268;12.302;2022-12-11T11:10:05;3.20;99.90
17728;DHT22;8984;49.268;12.302;2022-12-11T11:12:36;3.10;99.90
17728;DHT22;8984;49.268;12.302;2022-12-11T11:15:06;3.20;99.90
17728;DHT22;8984;49.268;12.302;2022-12-11T11:17:41;3.20;99.90
17728;DHT22;8984;49.268;12.302;2022-12-11T11:20:14;3.10;99.90
17728;DHT22;8984;49.268;12.302;2022-12-11T11:22:45;2.90;99.90
17728;DHT22;8984;49.268;12.302;2022-12-11T11:25:17;3.00;99.90
17728;DHT22;8984;49.268;12.302;2022-12-11T11:27:49;3.10;99.90
17728;DHT22;8984;49.268;12.302;2022-12-11T11:30:20;3.10;99.90
17728;DHT22;8984;49.268;12.302;2022-12-11T11:32:50;3.10;99.90
17728;DHT22;8984;49.268;12.302;2022-12-11T11:35:20;3.10;99.90
17728;DHT22;8984;49.268;12.302;2022-12-11T11:37:57;3.20;99.90
17728;DHT22;8984;49.268;12.302;2022-12-11T11:40:28;3.20;99.90
17728;DHT22;8984;49.268;12.302;2022-12-11T11:43:02;3.30;99.90
17728;DHT22;8984;49.268;12.302;2022-12-11T11:45:35;3.20;99.90
17728;DHT22;8984;49.268;12.302;2022-12-11T11:48:12;3.30;99.90
17728;DHT22;8984;49.268;12.302;2022-12-11T11:50:45;3.40;99.90
17728;DHT22;8984;49.268;12.302;2022-12-11T11:53:19;3.40;99.90
17728;DHT22;8984;49.268;12.302;2022-12-11T11:55:57;3.30;99.90
17728;DHT22;8984;49.268;12.302;2022-12-11T11:58:34;3.20;99.90
17728;DHT22;8984;49.268;12.302;2022-12-11T12:01:02;3.10;99.90
17728;DHT22;8984;49.268;12.302;2022-12-11T12:03:29;3.00;99.90
17728;DHT22;8984;49.268;12.302;2022-12-11T12:06:03;3.00;99.90
17728;DHT22;8984;49.268;12.302;2022-12-11T12:08:41;3.00;99.90
17728;DHT22;8984;49.268;12.302;2022-12-11T12:11:17;3.00;99.90
17728;DHT22;8984;49.268;12.302;2022-12-11T12:13:53;2.90;99.90
17728;DHT22;8984;49.268;12.302;2022-12-11T12:16:32;3.00;99.90
17728;DHT22;8984;49.268;12.302;2022-12-11T12:19:11;2.90;99.90
17728;DHT22;8984;49.268;12.302;2022-12-11T12:21:46;2.80;99.90
17728;DHT22;8984;49.268;12.302;2022-12-11T12:24:21;2.80;99.90
17728;DHT22;8984;49.268;12.302;2022-12-11T12:26:54;2.90;99.90
17728;DHT22;8984;49.268;12.302;2022-12-11T12:29:30;2.80;99.90
17728;DHT22;8984;49.268;12.302;2022-12-11T12:32:06;2.90;99.90
17728;DHT22;8984;49.268;12.302;2022-12-11T12:34:55;3.00;99.90
17728;DHT22;8984;49.268;12.302;2022-12-11T12:37:42;3.00;99.90
17728;DHT22;8984;49.268;12.302;2022-12-11T12:40:18;3.20;99.90
17728;DHT22;8984;49.268;12.302;2022-12-11T12:42:52;3.20;99.90
17728;DHT22;8984;49.268;12.302;2022-12-11T12:45:27;3.10;99.90
17728;DHT22;8984;49.268;12.302;2022-12-11T12:47:55;3.30;99.90
17728;DHT22;8984;49.268;12.302;2022-12-11T12:50:25;3.50;99.90
17728;DHT22;8984;49.268;12.302;2022-12-11T12:52:56;3.90;99.90
17728;DHT22;8984;49.268;12.302;2022-12-11T12:55:25;4.10;99.90
17728;DHT22;8984;49.268;12.302;2022-12-11T12:57:55;4.40;99.90
17728;DHT22;8984;49.268;12.302;2022-12-11T13:00:31;4.50;99.90
17728;DHT22;8984;49.268;12.302;2022-12-11T13:03:01;4.70;99.90
17728;DHT22;8984;49.268;12.302;2022-12-11T13:05:32;4.70;99.90
17728;DHT22;8984;49.268;12.302;2022-12-11T13:08:02;4.60;99.90
17728;DHT22;8984;49.268;12.302;2022-12-11T13:10:32;4.40;99.90
17728;DHT22;8984;49.268;12.302;2022-12-11T13:13:01;4.10;99.90
17728;DHT22;8984;49.268;12.302;2022-12-11T13:15:32;3.80;99.90
17728;DHT22;8984;49.268;12.302;2022-12-11T13:18:00;3.60;99.90
17728;DHT22;8984;49.268;12.302;2022-12-11T13:20:30;3.10;99.90
17728;DHT22;8984;49.268;12.302;2022-12-11T13:23:18;2.90;99.90
17728;DHT22;8984;49.268;12.302;2022-12-11T13:25:48;2.80;99.90
17728;DHT22;8984;49.268;12.302;2022-12-11T13:28:31;2.60;99.90
17728;DHT22;8984;49.268;12.302;2022-12-11T13:31:01;2.30;99.90
17728;DHT22;8984;49.268;12.302;2022-12-11T13:33:29;2.70;99.90
17728;DHT22;8984;49.268;12.302;2022-12-11T13:36:22;2.40;99.90
17728;DHT22;8984;49.268;12.302;2022-12-11T13:38:54;2.60;99.90
17728;DHT22;8984;49.268;12.302;2022-12-11T13:41:22;2.60;99.90
17728;DHT22;8984;49.268;12.302;2022-12-11T13:43:50;2.50;99.90
17728;DHT22;8984;49.268;12.302;2022-12-11T13:46:21;2.60;99.90
17728;DHT22;8984;49.268;12.302;2022-12-11T13:48:51;2.70;99.90
17728;DHT22;8984;49.268;12.302;2022-12-11T13:51:21;2.60;99.90
17728;DHT22;8984;49.268;12.302;2022-12-11T13:54:00;2.70;99.90
17728;DHT22;8984;49.268;12.302;2022-12-11T13:56:27;2.60;99.90
17728;DHT22;8984;49.268;12.302;2022-12-11T13:58:54;2.70;99.90
17728;DHT22;8984;49.268;12.302;2022-12-11T14:01:23;2.70;99.90
17728;DHT22;8984;49.268;12.302;2022-12-11T14:03:54;2.80;99.90
17728;DHT22;8984;49.268;12.302;2022-12-11T14:06:22;2.80;99.90
17728;DHT22;8984;49.268;12.302;2022-12-11T14:08:53;2.80;99.90
17728;DHT22;8984;49.268;12.302;2022-12-11T14:11:22;2.70;99.90
17728;DHT22;8984;49.268;12.302;2022-12-11T14:13:53;2.80;99.90
17728;DHT22;8984;49.268;12.302;2022-12-11T14:16:22;2.60;99.90
17728;DHT22;8984;49.268;12.302;2022-12-11T14:18:50;2.60;99.90
17728;DHT22;8984;49.268;12.302;2022-12-11T14:21:19;2.70;99.90
17728;DHT22;8984;49.268;12.302;2022-12-11T14:23:51;2.60;99.90
17728;DHT22;8984;49.268;12.302;2022-12-11T14:26:22;2.60;99.90
17728;DHT22;8984;49.268;12.302;2022-12-11T14:28:49;2.60;99.90
17728;DHT22;8984;49.268;12.302;2022-12-11T14:31:21;2.60;99.90
17728;DHT22;8984;49.268;12.302;2022-12-11T14:33:52;2.60;99.90
17728;DHT22;8984;49.268;12.302;2022-12-11T14:36:20;2.40;99.90
17728;DHT22;8984;49.268;12.302;2022-12-11T14:38:53;2.40;99.90
17728;DHT22;8984;49.268;12.302;2022-12-11T14:41:26;2.40;99.90
17728;DHT22;8984;49.268;12.302;2022-12-11T14:43:57;2.40;99.90
17728;DHT22;8984;49.268;12.302;2022-12-11T14:46:31;2.40;99.90
17728;DHT22;8984;49.268;12.302;2022-12-11T14:49:03;2.50;99.90
17728;DHT22;8984;49.268;12.302;2022-12-11T14:51:36;2.40;99.90
17728;DHT22;8984;49.268;12.302;2022-12-11T14:54:05;2.40;99.90
17728;DHT22;8984;49.268;12.302;2022-12-11T14:56:35;2.30;99.90
17728;DHT22;8984;49.268;12.302;2022-12-11T14:59:04;2.30;99.90
17728;DHT22;8984;49.268;12.302;2022-12-11T15:01:32;2.30;99.90
17728;DHT22;8984;49.268;12.302;2022-12-11T15:04:05;2.20;99.90
17728;DHT22;8984;49.268;12.302;2022-12-11T15:06:33;2.20;99.90
17728;DHT22;8984;49.268;12.302;2022-12-11T15:09:20;2.10;99.90
17728;DHT22;8984;49.268;12.302;2022-12-11T15:11:49;2.10;99.90
17728;DHT22;8984;49.268;12.302;2022-12-11T15:14:17;2.00;99.90
17728;DHT22;8984;49.268;12.302;2022-12-11T15:16:46;2.10;99.90
17728;DHT22;8984;49.268;12.302;2022-12-11T15:19:18;2.10;99.90
17728;DHT22;8984;49.268;12.302;2022-12-11T15:21:46;2.10;99.90
17728;DHT22;8984;49.268;12.302;2022-12-11T15:24:26;2.10;99.90
17728;DHT22;8984;49.268;12.302;2022-12-11T15:26:58;2.00;99.90
17728;DHT22;8984;49.268;12.302;2022-12-11T15:29:32;2.00;99.90
17728;DHT22;8984;49.268;12.302;2022-12-11T15:32:02;1.90;99.90
17728;DHT22;8984;49.268;12.302;2022-12-11T15:34:33;1.90;99.90
17728;DHT22;8984;49.268;12.302;2022-12-11T15:37:01;1.90;99.90
17728;DHT22;8984;49.268;12.302;2022-12-11T15:39:28;1.90;99.90
17728;DHT22;8984;49.268;12.302;2022-12-11T15:41:56;1.70;99.90
17728;DHT22;8984;49.268;12.302;2022-12-11T15:44:23;1.70;99.90
17728;DHT22;8984;49.268;12.302;2022-12-11T15:46:50;1.60;99.90
17728;DHT22;8984;49.268;12.302;2022-12-11T15:49:17;1.60;99.90
17728;DHT22;8984;49.268;12.302;2022-12-11T15:51:48;1.60;99.90
17728;DHT22;8984;49.268;12.302;2022-12-11T15:54:15;1.60;99.90
17728;DHT22;8984;49.268;12.302;2022-12-11T15:56:42;1.60;99.90
17728;DHT22;8984;49.268;12.302;2022-12-11T15:59:10;1.60;99.90
17728;DHT22;8984;49.268;12.302;2022-12-11T16:01:37;1.40;99.90
17728;DHT22;8984;49.268;12.302;2022-12-11T16:04:04;1.40;99.90